Time;durP1;ratioP1;P1;durP2;ratioP2;P2;SDS_P1;SDS_P2;PMS_P1;PMS_P2;Temp;Humidity;BMP_temperature;BMP_pressure;BME280_temperature;BME280_humidity;BME280_pressure;Samples;Min_cycle;Max_cycle;Signal;HPM_P1;HPM_P2
2023/08/27 00:00:29;;;;;;;0.70;0.30;;;21.40;94.70;;;;;;5095703;28;20081;-82
2023/08/27 00:02:55;;;;;;;1.50;0.40;;;21.40;94.70;;;;;;5095740;28;20024;-81
2023/08/27 00:05:21;;;;;;;1.30;0.55;;;21.40;94.80;;;;;;5095415;28;20430;-82
2023/08/27 00:07:46;;;;;;;1.30;0.30;;;21.40;94.80;;;;;;5094618;28;20032;-82
2023/08/27 00:10:12;;;;;;;1.05;0.43;;;21.40;94.80;;;;;;5095599;28;20054;-81
2023/08/27 00:12:38;;;;;;;0.70;0.40;;;21.40;94.70;;;;;;5094229;28;20020;-81
2023/08/27 00:15:05;;;;;;;0.93;0.30;;;21.40;94.80;;;;;;5095548;28;20032;-82
2023/08/27 00:17:30;;;;;;;2.10;0.60;;;21.40;94.70;;;;;;5095919;28;20384;-83
2023/08/27 00:19:56;;;;;;;1.00;0.50;;;21.40;94.70;;;;;;5094134;28;20024;-84
2023/08/27 00:22:22;;;;;;;0.98;0.30;;;21.40;94.70;;;;;;5095382;28;20058;-84
2023/08/27 00:24:48;;;;;;;0.70;0.32;;;21.40;94.70;;;;;;5095014;28;20052;-83
2023/08/27 00:27:13;;;;;;;1.17;0.40;;;21.40;94.80;;;;;;5095370;28;20047;-84
2023/08/27 00:29:39;;;;;;;4.72;0.50;;;21.40;94.70;;;;;;5077050;28;20450;-83
2023/08/27 00:32:05;;;;;;;1.17;0.28;;;21.40;94.70;;;;;;5095165;28;20054;-83
2023/08/27 00:34:32;;;;;;;0.90;0.40;;;21.40;94.70;;;;;;5094086;28;20445;-83
2023/08/27 00:37:01;;;;;;;1.05;0.30;;;21.40;94.60;;;;;;5095111;28;20032;-84
2023/08/27 00:39:29;;;;;;;1.80;0.40;;;21.30;94.60;;;;;;5093558;28;20028;-84
2023/08/27 00:41:55;;;;;;;1.55;0.43;;;21.30;94.70;;;;;;5095727;28;20031;-84
2023/08/27 00:44:21;;;;;;;0.55;0.40;;;21.30;94.70;;;;;;5095094;28;20056;-84
2023/08/27 00:46:48;;;;;;;1.77;0.50;;;21.30;94.60;;;;;;5093943;28;20071;-84
2023/08/27 00:49:15;;;;;;;1.10;0.30;;;21.40;94.70;;;;;;5093399;28;20553;-84
2023/08/27 00:51:42;;;;;;;0.50;0.20;;;21.30;94.70;;;;;;5094908;28;20027;-83
2023/08/27 00:54:08;;;;;;;1.10;0.30;;;21.30;94.60;;;;;;5095078;28;20028;-83
2023/08/27 00:56:34;;;;;;;0.80;0.30;;;21.30;94.50;;;;;;5094807;28;20028;-83
2023/08/27 00:59:01;;;;;;;0.90;0.40;;;21.30;94.50;;;;;;5094716;28;20086;-83
2023/08/27 01:01:29;;;;;;;1.30;0.40;;;21.20;94.20;;;;;;5094514;28;20036;-83
2023/08/27 01:03:54;;;;;;;0.50;0.20;;;21.10;94.20;;;;;;5094698;28;20431;-83
2023/08/27 01:06:20;;;;;;;0.73;0.30;;;21.10;94.40;;;;;;5095095;28;20131;-82
2023/08/27 01:08:56;;;;;;;0.70;0.30;;;21.20;94.50;;;;;;5094644;28;20032;-83
2023/08/27 01:11:36;;;;;;;0.93;0.30;;;21.10;94.60;;;;;;5094703;28;20480;-83
2023/08/27 01:14:10;;;;;;;0.70;0.30;;;21.10;94.60;;;;;;5094987;28;20063;-82
2023/08/27 01:16:37;;;;;;;0.60;0.30;;;21.10;94.50;;;;;;5094687;28;20023;-80
2023/08/27 01:19:12;;;;;;;0.60;0.30;;;21.10;94.10;;;;;;5094293;28;20024;-81
2023/08/27 01:21:39;;;;;;;1.60;0.40;;;21.10;94.20;;;;;;5093371;28;20479;-81
2023/08/27 01:24:06;;;;;;;0.63;0.30;;;21.10;94.40;;;;;;5094249;28;20342;-82
2023/08/27 01:26:56;;;;;;;2.25;0.30;;;21.10;94.50;;;;;;5093610;28;20522;-81
2023/08/27 01:29:25;;;;;;;0.65;0.30;;;21.10;94.50;;;;;;5094173;28;20044;-82
2023/08/27 01:32:31;;;;;;;0.75;0.35;;;21.10;94.40;;;;;;5093185;28;20020;-81
2023/08/27 01:34:58;;;;;;;3.22;0.40;;;21.00;94.40;;;;;;5094210;28;20016;-82
2023/08/27 01:37:24;;;;;;;1.17;0.25;;;21.00;94.40;;;;;;5094015;28;20119;-81
2023/08/27 01:40:01;;;;;;;0.90;0.40;;;21.10;94.50;;;;;;5093724;28;20123;-81
2023/08/27 01:42:27;;;;;;;0.70;0.25;;;21.10;94.50;;;;;;5092550;28;20085;-81
2023/08/27 01:44:55;;;;;;;0.95;0.20;;;21.10;94.50;;;;;;5094208;28;20036;-81
2023/08/27 01:47:21;;;;;;;0.40;0.20;;;21.10;94.60;;;;;;5093941;28;20051;-80
2023/08/27 01:49:48;;;;;;;0.82;0.20;;;21.10;94.70;;;;;;5093545;28;20036;-81
2023/08/27 01:52:14;;;;;;;1.00;0.20;;;21.10;94.60;;;;;;5093364;28;20024;-81
2023/08/27 01:54:40;;;;;;;0.98;0.30;;;21.10;94.60;;;;;;5093908;28;20375;-80
2023/08/27 01:57:06;;;;;;;2.35;0.30;;;21.20;94.70;;;;;;5093473;28;20032;-82
2023/08/27 01:59:32;;;;;;;0.65;0.20;;;21.10;94.50;;;;;;5093871;28;20028;-81
2023/08/27 02:01:58;;;;;;;0.52;0.20;;;21.10;94.50;;;;;;5093870;28;20025;-81
2023/08/27 02:04:24;;;;;;;0.70;0.35;;;21.10;94.50;;;;;;5075867;28;20031;-81
2023/08/27 02:06:49;;;;;;;0.57;0.30;;;21.10;94.40;;;;;;5093205;28;20519;-82
2023/08/27 02:09:15;;;;;;;0.82;0.30;;;21.20;94.40;;;;;;5093294;28;20039;-81
2023/08/27 02:11:42;;;;;;;1.00;0.55;;;21.10;94.40;;;;;;5093174;28;20052;-81
2023/08/27 02:14:07;;;;;;;0.60;0.30;;;21.20;94.50;;;;;;5093798;28;20358;-82
2023/08/27 02:16:34;;;;;;;0.90;0.30;;;21.10;94.50;;;;;;5093365;28;20071;-80
2023/08/27 02:19:00;;;;;;;0.98;0.20;;;21.10;94.40;;;;;;5092398;28;20330;-80
2023/08/27 02:21:26;;;;;;;1.95;0.50;;;21.20;94.50;;;;;;5093888;28;20032;-80
2023/08/27 02:23:51;;;;;;;0.63;0.40;;;21.20;94.50;;;;;;5093304;28;20032;-80
2023/08/27 02:26:17;;;;;;;0.70;0.25;;;21.20;94.40;;;;;;5093710;28;20146;-81
2023/08/27 02:28:43;;;;;;;0.52;0.20;;;21.10;94.40;;;;;;5091940;28;20243;-80
2023/08/27 02:31:08;;;;;;;0.70;0.38;;;21.10;94.50;;;;;;5093248;28;20406;-80
2023/08/27 02:33:35;;;;;;;1.15;0.30;;;21.10;94.50;;;;;;5092058;28;20035;-80
2023/08/27 02:36:00;;;;;;;0.63;0.20;;;21.10;94.50;;;;;;5091946;28;20028;-81
2023/08/27 02:38:26;;;;;;;0.85;0.30;;;21.10;94.50;;;;;;5093011;28;20119;-80
2023/08/27 02:40:52;;;;;;;1.30;0.20;;;21.10;94.50;;;;;;5092975;28;20035;-80
2023/08/27 02:43:17;;;;;;;0.50;0.20;;;21.10;94.50;;;;;;5097054;28;20028;-80
2023/08/27 02:45:45;;;;;;;0.55;0.25;;;21.00;94.50;;;;;;5097079;28;20032;-81
2023/08/27 02:48:11;;;;;;;0.90;0.30;;;21.00;94.60;;;;;;5097245;28;20029;-81
2023/08/27 02:50:37;;;;;;;0.77;0.32;;;21.00;94.50;;;;;;5096934;28;20404;-80
2023/08/27 02:53:03;;;;;;;0.55;0.30;;;21.00;94.60;;;;;;5095747;28;20031;-80
2023/08/27 02:55:31;;;;;;;1.75;0.20;;;21.00;94.60;;;;;;5097450;28;20020;-81
2023/08/27 02:57:59;;;;;;;1.65;0.20;;;21.00;94.60;;;;;;5096903;28;20126;-80
2023/08/27 03:00:26;;;;;;;0.80;0.30;;;21.00;94.60;;;;;;5095780;28;20125;-81
2023/08/27 03:02:52;;;;;;;0.50;0.20;;;21.00;94.70;;;;;;5097416;28;20107;-82
2023/08/27 03:05:18;;;;;;;0.98;0.20;;;21.00;94.60;;;;;;5097376;28;20499;-82
2023/08/27 03:07:44;;;;;;;1.83;0.47;;;21.00;94.70;;;;;;5096781;28;20033;-82
2023/08/27 03:10:10;;;;;;;1.30;0.20;;;21.00;94.90;;;;;;5096805;28;20028;-82
2023/08/27 03:12:36;;;;;;;1.13;0.30;;;21.00;94.60;;;;;;5096744;28;20032;-82
2023/08/27 03:15:02;;;;;;;0.93;0.25;;;21.00;94.60;;;;;;5096748;28;20027;-81
2023/08/27 03:17:28;;;;;;;0.98;0.20;;;21.00;94.60;;;;;;5096292;28;20060;-81
2023/08/27 03:19:53;;;;;;;0.63;0.25;;;21.00;94.60;;;;;;5096630;28;20032;-81
2023/08/27 03:22:19;;;;;;;1.05;0.30;;;21.00;94.30;;;;;;5096565;28;20169;-81
2023/08/27 03:24:46;;;;;;;0.88;0.30;;;20.90;94.00;;;;;;5096309;28;20115;-81
2023/08/27 03:27:12;;;;;;;0.80;0.40;;;20.80;93.60;;;;;;5096605;28;20052;-81
2023/08/27 03:29:38;;;;;;;0.95;0.40;;;20.70;93.50;;;;;;5096470;28;20039;-82
2023/08/27 03:32:04;;;;;;;2.45;0.40;;;20.70;93.80;;;;;;5095967;28;20051;-82
2023/08/27 03:34:30;;;;;;;3.78;0.68;;;20.50;93.90;;;;;;5096293;28;20024;-82
2023/08/27 03:36:56;;;;;;;0.82;0.50;;;20.40;93.80;;;;;;5094928;28;20032;-82
2023/08/27 03:39:21;;;;;;;1.27;0.30;;;20.40;93.70;;;;;;5096160;28;20028;-82
2023/08/27 03:41:47;;;;;;;0.63;0.32;;;20.30;93.50;;;;;;5094992;28;20151;-81
2023/08/27 03:44:13;;;;;;;1.05;0.30;;;20.20;93.60;;;;;;5094898;28;20040;-82
2023/08/27 03:46:40;;;;;;;2.03;0.70;;;20.10;93.70;;;;;;5095850;28;20032;-81
2023/08/27 03:49:06;;;;;;;1.08;0.55;;;20.00;93.30;;;;;;5096662;28;20025;-82
2023/08/27 03:51:31;;;;;;;0.60;0.40;;;19.80;93.70;;;;;;5095929;28;20382;-83
2023/08/27 03:54:00;;;;;;;2.33;0.45;;;19.60;94.10;;;;;;5094540;28;20073;-82
2023/08/27 03:56:26;;;;;;;1.60;0.50;;;19.60;94.70;;;;;;5095835;28;20035;-82
2023/08/27 03:58:52;;;;;;;1.10;0.40;;;19.50;95.00;;;;;;5095567;28;20028;-83
2023/08/27 04:01:18;;;;;;;1.10;0.40;;;19.50;95.40;;;;;;5096036;28;20453;-82
2023/08/27 04:03:44;;;;;;;1.27;0.50;;;19.50;95.60;;;;;;5095835;28;20060;-83
2023/08/27 04:06:10;;;;;;;1.40;0.50;;;19.50;95.90;;;;;;5095688;28;20114;-82
2023/08/27 04:08:36;;;;;;;0.90;0.40;;;19.40;95.90;;;;;;5095596;28;20085;-81
2023/08/27 04:11:03;;;;;;;0.85;0.55;;;19.40;96.10;;;;;;5094237;28;20024;-82
2023/08/27 04:13:32;;;;;;;2.10;0.60;;;19.40;96.20;;;;;;5095573;28;20020;-82
2023/08/27 04:16:08;;;;;;;1.10;0.57;;;19.40;96.20;;;;;;5095205;28;20024;-82
2023/08/27 04:18:34;;;;;;;3.05;1.25;;;19.40;96.10;;;;;;5095464;28;20024;-81
2023/08/27 04:21:00;;;;;;;1.58;0.80;;;19.30;95.80;;;;;;5094261;28;20024;-81
2023/08/27 04:23:26;;;;;;;2.10;1.00;;;19.30;96.00;;;;;;5095253;28;20031;-81
2023/08/27 04:25:52;;;;;;;2.28;0.93;;;19.20;95.90;;;;;;5093612;28;20075;-81
2023/08/27 04:28:17;;;;;;;3.10;1.48;;;19.10;95.90;;;;;;5095431;28;20032;-81
2023/08/27 04:30:46;;;;;;;2.35;1.10;;;19.00;96.00;;;;;;5094626;28;20422;-81
2023/08/27 04:33:11;;;;;;;2.00;1.08;;;18.90;96.30;;;;;;5095056;28;20464;-82
2023/08/27 04:35:38;;;;;;;2.22;0.82;;;18.70;96.50;;;;;;5093913;28;20039;-81
2023/08/27 04:38:05;;;;;;;1.80;0.95;;;18.70;96.90;;;;;;5095073;28;20488;-82
2023/08/27 04:40:30;;;;;;;1.15;0.70;;;18.70;97.30;;;;;;5095266;28;20033;-82
2023/08/27 04:42:57;;;;;;;2.00;0.90;;;18.70;97.40;;;;;;5095035;28;20040;-81
2023/08/27 04:45:23;;;;;;;1.52;0.60;;;18.80;97.70;;;;;;5094635;28;20051;-81
2023/08/27 04:47:49;;;;;;;2.88;1.08;;;18.90;97.80;;;;;;5094772;28;20478;-81
2023/08/27 04:50:14;;;;;;;1.42;0.90;;;19.00;97.80;;;;;;5093356;28;20032;-81
2023/08/27 04:52:40;;;;;;;1.48;0.60;;;19.00;97.50;;;;;;5094803;28;20048;-82
2023/08/27 04:55:07;;;;;;;1.38;0.57;;;19.00;97.60;;;;;;5093215;28;20464;-81
2023/08/27 04:57:37;;;;;;;1.50;0.57;;;19.10;97.50;;;;;;5093420;28;20036;-81
2023/08/27 05:00:08;;;;;;;1.10;0.32;;;19.10;97.70;;;;;;5093096;28;20077;-81
2023/08/27 05:02:34;;;;;;;0.93;0.30;;;19.20;97.90;;;;;;5093285;28;20043;-81
2023/08/27 05:05:00;;;;;;;0.77;0.40;;;19.30;97.90;;;;;;5093482;28;20032;-81
2023/08/27 05:07:26;;;;;;;1.08;0.40;;;19.30;97.80;;;;;;5094673;28;20069;-81
2023/08/27 05:09:51;;;;;;;2.25;0.40;;;19.40;97.90;;;;;;5094698;28;20028;-82
2023/08/27 05:12:18;;;;;;;2.70;0.50;;;19.50;97.90;;;;;;5094543;28;20052;-81
2023/08/27 05:14:44;;;;;;;1.45;0.35;;;19.50;97.80;;;;;;5093944;28;20032;-81
2023/08/27 05:17:10;;;;;;;0.82;0.30;;;19.60;97.70;;;;;;5094757;28;20028;-82
2023/08/27 05:19:36;;;;;;;1.58;0.55;;;19.60;97.60;;;;;;5094658;28;20074;-81
2023/08/27 05:22:02;;;;;;;2.10;0.35;;;19.70;97.60;;;;;;5094295;28;20028;-81
2023/08/27 05:24:28;;;;;;;1.80;0.30;;;19.80;97.60;;;;;;5094491;28;20039;-82
2023/08/27 05:26:54;;;;;;;0.40;0.30;;;19.80;97.60;;;;;;5094149;28;20048;-81
2023/08/27 05:29:19;;;;;;;0.95;0.40;;;19.80;97.50;;;;;;5094205;28;20028;-82
2023/08/27 05:31:45;;;;;;;1.60;0.50;;;19.90;97.50;;;;;;5093122;28;20074;-81
2023/08/27 05:34:11;;;;;;;0.73;0.30;;;19.90;97.40;;;;;;5094097;28;20036;-81
2023/08/27 05:36:37;;;;;;;0.77;0.30;;;19.90;97.30;;;;;;5094037;28;20028;-81
2023/08/27 05:39:05;;;;;;;1.20;0.22;;;19.90;97.30;;;;;;5093917;28;20032;-80
2023/08/27 05:41:31;;;;;;;0.63;0.25;;;19.90;97.30;;;;;;5094453;28;20028;-81
2023/08/27 05:43:56;;;;;;;0.93;0.30;;;20.00;97.30;;;;;;5094433;28;20532;-82
2023/08/27 05:46:22;;;;;;;0.95;0.30;;;20.00;97.20;;;;;;5093157;28;20455;-81
2023/08/27 05:48:47;;;;;;;0.80;0.20;;;20.00;97.10;;;;;;5092921;28;20419;-81
2023/08/27 05:51:13;;;;;;;1.98;0.20;;;20.10;97.10;;;;;;5094259;28;20071;-81
2023/08/27 05:53:39;;;;;;;1.05;0.30;;;20.10;97.00;;;;;;5094104;28;20035;-81
2023/08/27 05:56:04;;;;;;;0.80;0.20;;;20.20;97.00;;;;;;5094018;28;20028;-81
2023/08/27 05:58:30;;;;;;;3.67;0.47;;;20.20;96.90;;;;;;5094098;28;20096;-81
2023/08/27 06:00:56;;;;;;;0.93;0.30;;;20.20;96.20;;;;;;5093968;28;20107;-82
2023/08/27 06:03:22;;;;;;;1.02;0.30;;;20.20;96.00;;;;;;5093905;28;20020;-82
2023/08/27 06:05:48;;;;;;;0.43;0.20;;;20.20;96.00;;;;;;5094273;28;20032;-81
2023/08/27 06:08:14;;;;;;;1.17;0.40;;;20.20;96.10;;;;;;5093914;28;20483;-82
2023/08/27 06:10:40;;;;;;;1.60;0.40;;;20.20;95.90;;;;;;5093717;28;20039;-82
2023/08/27 06:13:06;;;;;;;0.63;0.28;;;20.20;95.90;;;;;;5093426;28;20024;-82
2023/08/27 06:15:34;;;;;;;1.23;0.20;;;20.20;96.00;;;;;;5092092;28;20032;-82
2023/08/27 06:18:03;;;;;;;1.83;0.30;;;20.10;96.10;;;;;;5091431;28;20058;-81
2023/08/27 06:20:29;;;;;;;0.98;0.30;;;20.10;96.10;;;;;;5093561;28;20024;-81
2023/08/27 06:22:54;;;;;;;0.77;0.28;;;20.10;96.00;;;;;;5091930;28;20078;-82
2023/08/27 06:25:22;;;;;;;0.93;0.40;;;20.00;96.10;;;;;;5093054;28;20039;-81
2023/08/27 06:27:48;;;;;;;0.60;0.20;;;20.00;96.10;;;;;;5093533;28;20093;-81
2023/08/27 06:30:13;;;;;;;0.65;0.25;;;20.00;96.20;;;;;;5092795;28;20472;-81
2023/08/27 06:32:39;;;;;;;0.80;0.20;;;20.00;96.30;;;;;;5093499;28;20032;-81
2023/08/27 06:35:05;;;;;;;0.68;0.25;;;20.00;96.30;;;;;;5093135;28;20029;-82
2023/08/27 06:37:31;;;;;;;1.33;0.40;;;20.10;96.10;;;;;;5091823;28;20093;-81
2023/08/27 06:39:56;;;;;;;0.55;0.30;;;20.10;96.00;;;;;;5074974;28;20039;-81
2023/08/27 06:42:22;;;;;;;1.73;0.60;;;20.10;96.10;;;;;;5091925;28;20048;-82
2023/08/27 06:44:48;;;;;;;0.93;0.30;;;20.10;96.00;;;;;;5092812;28;20032;-82
2023/08/27 06:47:13;;;;;;;1.23;0.30;;;20.10;96.20;;;;;;5092508;28;20047;-81
2023/08/27 06:49:39;;;;;;;1.48;0.30;;;20.10;96.30;;;;;;5092995;28;20032;-81
2023/08/27 06:52:05;;;;;;;1.65;0.28;;;20.00;96.50;;;;;;5092020;28;20024;-82
2023/08/27 06:54:31;;;;;;;1.75;0.40;;;20.00;96.50;;;;;;5093053;28;20071;-81
2023/08/27 06:56:57;;;;;;;1.85;0.40;;;19.90;96.60;;;;;;5091682;28;20032;-81
2023/08/27 06:59:22;;;;;;;2.13;0.20;;;19.90;96.80;;;;;;5092882;28;20029;-81
2023/08/27 07:01:48;;;;;;;1.75;0.40;;;20.00;96.80;;;;;;5092898;28;20484;-82
2023/08/27 07:04:14;;;;;;;1.23;0.47;;;20.10;96.60;;;;;;5092772;28;20107;-82
2023/08/27 07:06:39;;;;;;;1.33;0.30;;;20.10;96.40;;;;;;5092873;28;20028;-81
2023/08/27 07:09:05;;;;;;;0.90;0.40;;;20.10;96.10;;;;;;5092805;28;20065;-81
2023/08/27 07:11:33;;;;;;;1.75;0.45;;;20.10;96.30;;;;;;5093171;28;20032;-82
2023/08/27 07:13:59;;;;;;;2.30;0.32;;;20.10;96.50;;;;;;5093182;28;20058;-82
2023/08/27 07:16:26;;;;;;;4.10;0.90;;;20.10;96.40;;;;;;5093195;28;20032;-81
2023/08/27 07:18:52;;;;;;;1.75;0.70;;;20.10;96.60;;;;;;5092813;28;20028;-82
2023/08/27 07:21:23;;;;;;;2.05;0.40;;;19.90;96.50;;;;;;5092914;28;20114;-82
2023/08/27 07:23:48;;;;;;;1.48;0.57;;;19.90;96.60;;;;;;5092883;28;20104;-82
2023/08/27 07:26:14;;;;;;;1.20;0.40;;;19.90;96.70;;;;;;5091558;28;20549;-82
2023/08/27 07:28:40;;;;;;;2.03;0.85;;;20.00;96.90;;;;;;5095187;28;20075;-83
2023/08/27 07:31:05;;;;;;;5.63;1.60;;;19.90;96.90;;;;;;5096507;28;20368;-83
2023/08/27 07:33:32;;;;;;;3.25;1.60;;;20.00;97.10;;;;;;5096367;28;20028;-83
2023/08/27 07:35:58;;;;;;;3.05;1.55;;;19.90;96.80;;;;;;5096623;28;20024;-81
2023/08/27 07:38:26;;;;;;;2.45;1.08;;;19.90;96.90;;;;;;5095105;28;20487;-82
2023/08/27 07:40:52;;;;;;;2.70;1.40;;;19.90;96.70;;;;;;5096202;28;20119;-82
2023/08/27 07:43:18;;;;;;;3.05;1.33;;;20.00;96.80;;;;;;5096174;28;20059;-83
2023/08/27 07:45:43;;;;;;;2.92;1.13;;;20.00;97.00;;;;;;5096390;28;20111;-83
2023/08/27 07:48:09;;;;;;;5.20;1.67;;;20.10;97.50;;;;;;5095621;28;20393;-83
2023/08/27 07:50:35;;;;;;;2.58;1.00;;;20.10;97.50;;;;;;5094651;28;20028;-83
2023/08/27 07:53:00;;;;;;;4.00;1.60;;;20.10;97.80;;;;;;5094777;28;20059;-83
2023/08/27 07:55:31;;;;;;;2.00;1.10;;;20.20;98.00;;;;;;5095804;28;20044;-82
2023/08/27 07:57:57;;;;;;;4.05;1.20;;;20.10;97.40;;;;;;5095872;28;20123;-83
2023/08/27 08:00:22;;;;;;;4.60;1.23;;;20.10;97.20;;;;;;5095970;28;20028;-82
2023/08/27 08:02:48;;;;;;;4.68;1.30;;;20.10;97.20;;;;;;5096078;28;20024;-83
2023/08/27 08:05:14;;;;;;;2.05;1.17;;;20.10;97.40;;;;;;5096097;28;20453;-82
2023/08/27 08:07:40;;;;;;;4.72;1.50;;;20.10;97.40;;;;;;5095609;28;20437;-82
2023/08/27 08:10:06;;;;;;;1.60;1.00;;;20.10;97.30;;;;;;5095922;28;20161;-82
2023/08/27 08:12:32;;;;;;;5.80;1.90;;;20.10;97.00;;;;;;5095585;28;20056;-82
2023/08/27 08:14:58;;;;;;;5.85;1.73;;;20.10;96.90;;;;;;5095964;28;20028;-81
2023/08/27 08:17:23;;;;;;;3.83;1.48;;;20.00;96.80;;;;;;5094128;28;20047;-82
2023/08/27 08:19:50;;;;;;;2.67;1.50;;;19.90;97.00;;;;;;5095148;28;20032;-82
2023/08/27 08:22:16;;;;;;;4.63;1.73;;;20.00;97.20;;;;;;5095552;28;20491;-82
2023/08/27 08:24:42;;;;;;;4.00;1.67;;;20.00;97.30;;;;;;5095714;28;20028;-81
2023/08/27 08:27:08;;;;;;;4.15;2.20;;;20.00;97.30;;;;;;5095194;28;20056;-82
2023/08/27 08:29:33;;;;;;;4.10;1.52;;;19.90;97.00;;;;;;5095513;28;20369;-82
2023/08/27 08:32:00;;;;;;;6.80;2.33;;;20.00;97.20;;;;;;5095271;28;20134;-82
2023/08/27 08:34:28;;;;;;;6.55;2.38;;;20.10;97.20;;;;;;5093902;28;20032;-81
2023/08/27 08:36:55;;;;;;;5.47;2.17;;;20.10;96.60;;;;;;5095096;28;20035;-81
2023/08/27 08:39:21;;;;;;;5.07;2.80;;;20.20;96.40;;;;;;5093794;28;20112;-81
2023/08/27 08:42:13;;;;;;;5.32;2.90;;;20.10;96.10;;;;;;5094993;28;20059;-81
2023/08/27 08:44:52;;;;;;;5.65;3.22;;;20.10;96.30;;;;;;5086309;28;20040;-81
2023/08/27 08:47:21;;;;;;;7.07;2.60;;;20.10;96.30;;;;;;5094950;28;20073;-81
2023/08/27 08:49:53;;;;;;;4.57;2.20;;;20.00;96.10;;;;;;5095029;28;20020;-81
2023/08/27 08:52:25;;;;;;;4.70;2.45;;;19.90;95.90;;;;;;5095420;28;20020;-81
2023/08/27 08:54:54;;;;;;;4.93;1.90;;;19.90;96.20;;;;;;5094696;28;20029;-82
2023/08/27 08:57:22;;;;;;;3.00;2.10;;;19.90;96.40;;;;;;5095023;28;20024;-81
2023/08/27 08:59:49;;;;;;;7.43;2.20;;;20.00;96.10;;;;;;5094944;28;20059;-81
2023/08/27 09:02:16;;;;;;;4.40;1.50;;;20.00;95.40;;;;;;5093112;28;20035;-81
2023/08/27 09:04:42;;;;;;;7.90;1.65;;;20.00;95.40;;;;;;5093275;28;20107;-82
2023/08/27 09:07:08;;;;;;;4.35;1.20;;;20.00;95.00;;;;;;5094287;28;20036;-81
2023/08/27 09:09:35;;;;;;;3.90;1.67;;;20.10;95.40;;;;;;5093687;28;20455;-81
2023/08/27 09:12:02;;;;;;;3.33;0.90;;;20.30;95.40;;;;;;5094595;28;20051;-81
2023/08/27 09:14:30;;;;;;;5.15;1.40;;;20.40;95.60;;;;;;5094508;28;20039;-81
2023/08/27 09:16:56;;;;;;;5.50;1.00;;;20.40;95.00;;;;;;5094313;28;20024;-81
2023/08/27 09:19:22;;;;;;;3.60;1.08;;;20.50;94.20;;;;;;5094004;28;20036;-82
2023/08/27 09:21:48;;;;;;;2.00;0.55;;;20.50;93.80;;;;;;5094261;28;20376;-81
2023/08/27 09:24:14;;;;;;;2.70;0.80;;;20.40;93.90;;;;;;5093907;28;20059;-82
2023/08/27 09:26:40;;;;;;;2.15;1.08;;;20.40;93.90;;;;;;5094127;28;20121;-82
2023/08/27 09:29:09;;;;;;;3.58;0.73;;;20.30;93.80;;;;;;5092955;28;20468;-81
2023/08/27 09:31:40;;;;;;;3.85;1.02;;;20.40;93.90;;;;;;5093002;28;20093;-81
2023/08/27 09:34:05;;;;;;;3.38;0.93;;;20.40;94.20;;;;;;5094368;28;20020;-82
2023/08/27 09:36:35;;;;;;;5.68;1.60;;;20.50;93.50;;;;;;5093837;28;20031;-81
2023/08/27 09:39:11;;;;;;;3.83;1.35;;;20.40;93.30;;;;;;5093895;28;20054;-81
2023/08/27 09:41:41;;;;;;;2.58;1.10;;;20.20;93.20;;;;;;5094638;28;20415;-81
2023/08/27 09:44:08;;;;;;;3.13;1.30;;;20.20;93.50;;;;;;5093634;28;20028;-82
2023/08/27 09:46:37;;;;;;;3.78;1.30;;;20.10;93.30;;;;;;5093653;28;20028;-81
2023/08/27 09:49:06;;;;;;;2.80;1.02;;;20.00;93.60;;;;;;5093376;28;20052;-82
2023/08/27 09:51:33;;;;;;;2.38;1.17;;;19.90;93.70;;;;;;5093066;28;20028;-83
2023/08/27 09:53:58;;;;;;;4.97;1.25;;;19.90;93.50;;;;;;5093815;28;20107;-82
2023/08/27 09:56:28;;;;;;;2.63;0.82;;;19.90;93.50;;;;;;5093669;28;20496;-82
2023/08/27 09:58:55;;;;;;;5.22;1.58;;;20.00;93.70;;;;;;5093679;28;20032;-81
2023/08/27 10:01:21;;;;;;;3.25;0.95;;;20.00;93.80;;;;;;5094072;28;20024;-81
2023/08/27 10:03:48;;;;;;;3.97;0.95;;;20.10;93.90;;;;;;5075455;28;20039;-82
2023/08/27 10:06:14;;;;;;;1.85;0.80;;;20.30;94.20;;;;;;5094052;28;20038;-83
2023/08/27 10:08:50;;;;;;;1.15;0.35;;;20.70;94.40;;;;;;5093785;28;20028;-82
2023/08/27 10:11:17;;;;;;;1.90;0.40;;;20.90;94.10;;;;;;5076103;28;20380;-83
2023/08/27 10:13:44;;;;;;;2.13;0.52;;;21.00;92.80;;;;;;5093596;28;20511;-83
2023/08/27 10:16:14;;;;;;;3.80;0.77;;;21.00;92.30;;;;;;5093261;28;20043;-83
2023/08/27 10:18:41;;;;;;;2.28;0.40;;;20.90;91.40;;;;;;5093481;28;20024;-83
2023/08/27 10:21:08;;;;;;;2.20;0.40;;;20.90;91.60;;;;;;5092250;28;20028;-83
2023/08/27 10:23:38;;;;;;;2.78;0.30;;;20.80;91.30;;;;;;5093477;28;20052;-85
2023/08/27 10:26:04;;;;;;;2.38;0.40;;;20.80;91.80;;;;;;5093041;28;20056;-83
2023/08/27 10:28:31;;;;;;;2.50;0.40;;;20.70;91.90;;;;;;5093272;28;20496;-84
2023/08/27 10:30:57;;;;;;;1.67;0.40;;;20.60;92.30;;;;;;5093371;28;20372;-83
2023/08/27 10:33:22;;;;;;;1.48;0.20;;;20.50;90.80;;;;;;5093570;28;20056;-83
2023/08/27 10:35:51;;;;;;;0.90;0.20;;;20.30;90.00;;;;;;5091875;28;20071;-84
2023/08/27 10:38:18;;;;;;;0.95;0.20;;;20.10;90.20;;;;;;5091960;28;20028;-83
2023/08/27 10:40:44;;;;;;;1.02;0.10;;;20.00;89.60;;;;;;5093118;28;20036;-82
2023/08/27 10:43:18;;;;;;;1.10;0.10;;;19.80;88.40;;;;;;5091627;28;20032;-84
2023/08/27 10:45:44;;;;;;;0.20;0.10;;;19.70;88.90;;;;;;5091874;28;20113;-84
2023/08/27 10:48:15;;;;;;;0.73;0.10;;;19.60;87.20;;;;;;5092903;28;20043;-84
2023/08/27 10:50:49;;;;;;;0.55;0.10;;;19.50;87.10;;;;;;5092708;28;20549;-84
2023/08/27 10:53:16;;;;;;;1.15;0.40;;;19.40;87.60;;;;;;5093172;28;20028;-83
2023/08/27 10:55:44;;;;;;;0.35;0.10;;;19.30;88.80;;;;;;5093041;28;20105;-84
2023/08/27 10:58:18;;;;;;;1.20;0.65;;;19.30;89.70;;;;;;5092779;28;20450;-83
2023/08/27 11:01:05;;;;;;;1.23;0.20;;;19.30;90.10;;;;;;5093353;28;20028;-84
2023/08/27 11:03:51;;;;;;;0.90;0.25;;;19.20;90.70;;;;;;5095493;28;20465;-84
2023/08/27 11:06:17;;;;;;;1.85;0.20;;;19.10;91.00;;;;;;5096047;28;20028;-83
2023/08/27 11:08:43;;;;;;;0.73;0.20;;;19.20;91.50;;;;;;5095433;28;20090;-83
2023/08/27 11:11:15;;;;;;;1.30;0.20;;;19.30;91.60;;;;;;5095339;28;20133;-84
2023/08/27 11:13:41;;;;;;;0.52;0.20;;;19.40;92.00;;;;;;5095497;28;20384;-84
2023/08/27 11:16:15;;;;;;;1.88;0.30;;;19.50;91.80;;;;;;5078857;28;20028;-84
2023/08/27 11:18:59;;;;;;;1.27;0.20;;;19.60;91.20;;;;;;5096545;28;20031;-83
2023/08/27 11:21:24;;;;;;;0.98;0.20;;;19.60;91.10;;;;;;5096670;28;20020;-84
2023/08/27 11:24:12;;;;;;;1.38;0.28;;;19.50;91.50;;;;;;5096649;28;20112;-85
2023/08/27 11:26:42;;;;;;;2.47;0.30;;;19.30;91.70;;;;;;5096136;28;20044;-83
2023/08/27 11:29:09;;;;;;;1.75;0.20;;;19.10;92.00;;;;;;5096463;28;20028;-84
2023/08/27 11:31:37;;;;;;;1.13;0.20;;;18.90;92.20;;;;;;5096420;28;20066;-83
2023/08/27 11:34:04;;;;;;;1.02;0.20;;;18.60;92.40;;;;;;5096043;28;20113;-83
2023/08/27 11:36:30;;;;;;;3.50;0.80;;;18.40;92.80;;;;;;5095413;28;20020;-83
2023/08/27 11:38:59;;;;;;;2.55;0.55;;;18.30;93.60;;;;;;5096529;28;20563;-81
2023/08/27 11:41:25;;;;;;;2.10;0.50;;;18.10;94.60;;;;;;5096287;28;20060;-82
2023/08/27 11:43:53;;;;;;;3.42;0.40;;;17.80;94.40;;;;;;5096201;28;20020;-83
2023/08/27 11:46:23;;;;;;;3.33;0.32;;;17.70;94.70;;;;;;5094777;28;20039;-81
2023/08/27 11:48:49;;;;;;;1.42;0.40;;;17.80;95.30;;;;;;5095745;28;20028;-84
2023/08/27 11:51:18;;;;;;;1.77;0.32;;;18.00;95.60;;;;;;5096144;28;20052;-83
2023/08/27 11:53:46;;;;;;;2.10;0.30;;;18.00;95.00;;;;;;5096088;28;20079;-83
2023/08/27 11:56:17;;;;;;;1.67;0.20;;;18.10;94.80;;;;;;5094543;28;20032;-83
2023/08/27 11:58:44;;;;;;;1.08;0.30;;;18.20;95.10;;;;;;5095671;28;20525;-84
2023/08/27 12:01:13;;;;;;;3.63;0.40;;;18.20;95.40;;;;;;5095824;28;20483;-82
2023/08/27 12:03:39;;;;;;;1.77;0.45;;;18.30;95.80;;;;;;5095767;28;20020;-83
2023/08/27 12:06:05;;;;;;;0.95;0.28;;;18.50;96.00;;;;;;5095422;28;20472;-83
2023/08/27 12:08:35;;;;;;;0.75;0.20;;;18.60;95.90;;;;;;5095936;28;20086;-82
2023/08/27 12:11:01;;;;;;;1.33;0.20;;;18.80;95.90;;;;;;5095471;28;20476;-83
2023/08/27 12:13:27;;;;;;;1.88;0.20;;;18.90;95.70;;;;;;5094265;28;20369;-82
2023/08/27 12:15:54;;;;;;;1.75;0.30;;;19.10;95.70;;;;;;5094631;28;20039;-82
2023/08/27 12:18:19;;;;;;;2.03;0.30;;;19.20;95.30;;;;;;5093879;28;20032;-81
2023/08/27 12:20:49;;;;;;;1.08;0.20;;;19.40;95.10;;;;;;5094900;28;20043;-82
2023/08/27 12:23:15;;;;;;;0.77;0.28;;;19.60;95.00;;;;;;5095665;28;20108;-81
2023/08/27 12:25:48;;;;;;;0.88;0.20;;;19.80;94.40;;;;;;5095247;28;20107;-82
2023/08/27 12:28:17;;;;;;;0.50;0.20;;;20.00;94.50;;;;;;5094557;28;20427;-82
2023/08/27 12:30:49;;;;;;;3.13;0.20;;;20.00;94.30;;;;;;5094100;28;20408;-82
2023/08/27 12:33:15;;;;;;;1.73;0.28;;;20.20;94.90;;;;;;5095668;28;20035;-82
2023/08/27 12:35:47;;;;;;;1.67;0.30;;;20.50;95.20;;;;;;5095302;28;20396;-81
2023/08/27 12:38:16;;;;;;;0.93;0.13;;;20.70;94.90;;;;;;5094008;28;20107;-80
2023/08/27 12:40:41;;;;;;;4.35;0.40;;;20.90;94.50;;;;;;5095151;28;20039;-81
2023/08/27 12:43:07;;;;;;;0.60;0.13;;;21.00;94.20;;;;;;5076822;28;20025;-80
2023/08/27 12:45:33;;;;;;;2.72;0.25;;;21.10;94.70;;;;;;5095199;28;20159;-79
2023/08/27 12:48:05;;;;;;;0.90;0.20;;;21.10;94.30;;;;;;5094787;28;20032;-79